createdAt,value
2019-05-30T00:00:53.897Z,72.70
2019-05-30T00:03:26.194Z,73.10
2019-05-30T00:05:58.321Z,73.60
2019-05-30T00:08:30.051Z,74.20
2019-05-30T00:11:02.768Z,75.20
2019-05-30T00:13:34.760Z,74.80
2019-05-30T00:16:06.637Z,75.30
2019-05-30T00:18:38.377Z,75.70
2019-05-30T00:21:10.142Z,76.00
2019-05-30T00:23:41.803Z,76.50
2019-05-30T00:26:13.629Z,76.70
2019-05-30T00:28:45.407Z,77.00
2019-05-30T00:31:17.196Z,77.60
2019-05-30T00:33:49.133Z,78.10
2019-05-30T00:36:20.900Z,78.60
2019-05-30T00:38:52.707Z,79.10
2019-05-30T00:41:24.422Z,79.30
2019-05-30T00:43:56.313Z,79.80
2019-05-30T00:46:28.202Z,80.10
2019-05-30T00:49:00.202Z,80.40
2019-05-30T00:51:31.920Z,80.90
2019-05-30T00:54:04.714Z,81.30
2019-05-30T00:56:36.510Z,81.90
2019-05-30T00:59:08.196Z,82.40
2019-05-30T01:01:40.083Z,82.80
2019-05-30T01:04:11.633Z,83.50
2019-05-30T01:06:43.394Z,83.80
2019-05-30T01:09:15.144Z,84.10
2019-05-30T01:11:46.958Z,84.40
2019-05-30T01:14:18.871Z,84.70
2019-05-30T01:16:50.501Z,85.10
2019-05-30T01:19:22.373Z,85.50
2019-05-30T01:21:53.997Z,86.10
2019-05-30T01:24:25.780Z,86.80
2019-05-30T01:26:57.589Z,87.80
2019-05-30T01:29:29.441Z,87.20
2019-05-30T01:32:05.548Z,87.70
2019-05-30T01:34:37.336Z,88.00
2019-05-30T01:37:09.146Z,88.50
2019-05-30T01:39:40.965Z,88.80
2019-05-30T01:42:12.662Z,89.10
2019-05-30T01:44:44.335Z,90.00
2019-05-30T01:47:16.159Z,89.70
2019-05-30T01:49:47.866Z,90.00
2019-05-30T01:52:19.760Z,90.20
2019-05-30T01:54:51.277Z,90.40
2019-05-30T01:57:22.922Z,90.50
2019-05-30T01:59:54.699Z,90.60
2019-05-30T02:02:26.639Z,91.00
2019-05-30T02:04:58.850Z,90.80
2019-05-30T02:07:30.629Z,91.00
2019-05-30T02:10:03.270Z,91.20
2019-05-30T02:12:35.328Z,91.40
2019-05-30T02:15:08.139Z,91.40
2019-05-30T02:17:40.000Z,91.50
2019-05-30T02:20:12.190Z,91.60
2019-05-30T02:22:44.015Z,91.60
2019-05-30T02:25:15.842Z,91.50
2019-05-30T02:27:47.630Z,91.50
2019-05-30T02:30:20.263Z,91.50
2019-05-30T02:32:52.090Z,91.30
2019-05-30T02:35:23.355Z,91.30
2019-05-30T02:37:55.112Z,91.20
2019-05-30T02:40:27.312Z,91.30
2019-05-30T02:42:59.092Z,91.30
2019-05-30T02:45:30.953Z,91.40
2019-05-30T02:48:03.181Z,91.40
2019-05-30T02:50:35.172Z,91.40
2019-05-30T02:53:08.311Z,91.50
2019-05-30T02:55:40.181Z,91.50
2019-05-30T02:58:12.879Z,91.50
2019-05-30T03:00:45.572Z,91.50
2019-05-30T03:03:17.390Z,91.50
2019-05-30T03:05:49.474Z,91.60
2019-05-30T03:08:21.136Z,91.60
2019-05-30T03:10:53.514Z,91.50
2019-05-30T03:13:25.966Z,91.50
2019-05-30T03:15:58.155Z,91.40
2019-05-30T03:18:29.936Z,91.40
2019-05-30T03:21:03.163Z,91.30
2019-05-30T03:23:35.222Z,91.10
2019-05-30T03:26:09.730Z,90.90
2019-05-30T03:28:40.661Z,90.60
2019-05-30T03:31:25.489Z,90.40
2019-05-30T03:33:46.324Z,90.10
2019-05-30T03:36:28.725Z,90.00
2019-05-30T03:38:51.773Z,90.00
2019-05-30T03:41:23.714Z,90.10
2019-05-30T03:43:55.380Z,90.10
2019-05-30T03:46:30.051Z,90.10
2019-05-30T03:49:06.113Z,90.10
2019-05-30T03:51:39.526Z,90.10
2019-05-30T03:54:13.734Z,90.10
2019-05-30T03:56:48.650Z,90.30
2019-05-30T03:59:30.242Z,90.20
2019-05-30T04:02:15.989Z,90.20
2019-05-30T04:04:52.906Z,90.10
2019-05-30T04:07:27.966Z,90.10
2019-05-30T04:10:04.511Z,90.20
2019-05-30T04:13:12.101Z,90.30
2019-05-30T04:15:45.106Z,90.40
2019-05-30T04:18:17.191Z,90.10
2019-05-30T04:20:49.068Z,90.10
2019-05-30T04:23:20.985Z,90.10
2019-05-30T04:25:53.213Z,90.20
2019-05-30T04:28:25.297Z,90.00
2019-05-30T04:30:57.276Z,89.70
2019-05-30T04:33:33.384Z,89.70
2019-05-30T04:36:03.028Z,89.30
2019-05-30T04:38:35.111Z,89.30
2019-05-30T04:41:06.910Z,89.20
2019-05-30T04:43:38.802Z,89.10
2019-05-30T04:46:12.204Z,89.90
2019-05-30T04:48:44.150Z,89.10
2019-05-30T04:51:16.478Z,88.90
2019-05-30T04:53:48.502Z,88.50
2019-05-30T04:56:21.966Z,88.50
2019-05-30T04:58:59.695Z,88.20
2019-05-30T05:01:31.649Z,88.00
2019-05-30T05:04:03.525Z,87.90
2019-05-30T05:06:35.478Z,87.50
2019-05-30T05:09:07.923Z,87.10
2019-05-30T05:11:39.720Z,86.70
2019-05-30T05:14:12.304Z,86.50
2019-05-30T05:16:44.369Z,86.50
2019-05-30T05:19:17.206Z,86.00
2019-05-30T05:21:49.022Z,85.30
2019-05-30T05:24:21.479Z,85.20
2019-05-30T05:26:53.380Z,85.00
2019-05-30T05:29:25.241Z,84.80
2019-05-30T05:31:57.186Z,84.50
2019-05-30T05:34:29.659Z,83.90
2019-05-30T05:37:01.247Z,83.70
2019-05-30T05:39:33.531Z,81.40
2019-05-30T05:42:06.175Z,75.50
2019-05-30T05:44:38.596Z,69.30
2019-05-30T05:47:10.699Z,64.60
2019-05-30T05:49:42.624Z,60.60
2019-05-30T05:52:14.648Z,58.30
2019-05-30T05:54:52.288Z,57.20
2019-05-30T05:57:25.027Z,56.10
2019-05-30T05:59:58.000Z,54.90
2019-05-30T06:02:30.079Z,53.80
2019-05-30T06:05:04.163Z,52.70
2019-05-30T06:07:36.318Z,52.50
2019-05-30T06:10:08.434Z,51.90
2019-05-30T06:12:40.872Z,51.20
2019-05-30T06:15:13.372Z,50.20
2019-05-30T06:17:45.856Z,49.30
2019-05-30T06:20:19.237Z,48.40
2019-05-30T06:22:51.662Z,47.90
2019-05-30T06:25:26.621Z,47.60
2019-05-30T06:27:57.945Z,47.10
2019-05-30T06:30:29.927Z,46.20
2019-05-30T06:33:03.250Z,45.90
2019-05-30T06:35:35.648Z,44.00
2019-05-30T06:38:07.556Z,43.10
2019-05-30T06:40:39.645Z,41.90
2019-05-30T06:43:12.302Z,40.60
2019-05-30T06:45:44.340Z,40.10
2019-05-30T06:48:16.015Z,40.00
2019-05-30T06:50:48.301Z,40.50
2019-05-30T06:53:21.024Z,41.30
2019-05-30T06:55:53.279Z,40.40
2019-05-30T06:58:43.662Z,39.30
2019-05-30T07:00:58.875Z,38.40
2019-05-30T07:03:32.475Z,37.40
2019-05-30T07:06:05.338Z,36.40
2019-05-30T07:08:38.227Z,35.10
2019-05-30T07:11:11.234Z,34.60
2019-05-30T07:13:43.656Z,34.20
2019-05-30T07:16:16.127Z,34.20
2019-05-30T07:18:49.265Z,34.00
2019-05-30T07:21:21.339Z,33.40
2019-05-30T07:23:53.042Z,33.00
2019-05-30T07:26:25.631Z,32.70
2019-05-30T07:29:00.651Z,32.60
2019-05-30T07:31:32.229Z,32.10
2019-05-30T07:34:04.404Z,31.70
2019-05-30T07:36:37.336Z,32.30
2019-05-30T07:39:10.851Z,32.30
2019-05-30T07:41:43.023Z,32.40
2019-05-30T07:44:15.085Z,32.60
2019-05-30T07:46:46.928Z,32.90
2019-05-30T07:49:19.342Z,32.90
2019-05-30T07:51:51.722Z,32.90
2019-05-30T07:54:23.925Z,32.90
2019-05-30T07:56:56.039Z,32.80
2019-05-30T07:59:28.233Z,32.30
2019-05-30T08:02:00.707Z,31.60
2019-05-30T08:04:34.090Z,31.60
2019-05-30T08:07:06.411Z,31.80
2019-05-30T08:09:37.858Z,31.80
2019-05-30T08:12:10.359Z,31.80
2019-05-30T08:14:42.593Z,31.90
2019-05-30T08:17:15.062Z,32.40
2019-05-30T08:19:47.560Z,32.40
2019-05-30T08:22:19.944Z,32.30
2019-05-30T08:24:52.968Z,32.10
2019-05-30T08:27:25.311Z,32.20
2019-05-30T08:29:58.280Z,32.20
2019-05-30T08:32:30.560Z,32.30
2019-05-30T08:35:02.862Z,32.50
2019-05-30T08:37:35.181Z,32.40
2019-05-30T08:40:08.300Z,31.90
2019-05-30T08:42:40.534Z,31.70
2019-05-30T08:45:13.237Z,31.80
2019-05-30T08:47:45.389Z,31.60
2019-05-30T08:50:18.113Z,31.70
2019-05-30T08:52:50.310Z,31.70
2019-05-30T08:55:22.836Z,31.70
2019-05-30T08:57:54.898Z,31.60
2019-05-30T09:00:27.878Z,31.30
2019-05-30T09:03:01.380Z,31.70
2019-05-30T09:05:33.270Z,31.80
2019-05-30T09:08:07.577Z,32.20
2019-05-30T09:10:40.859Z,33.60
2019-05-30T09:13:13.199Z,33.40
2019-05-30T09:15:45.350Z,33.40
2019-05-30T09:18:17.739Z,33.30
2019-05-30T09:20:49.654Z,33.20
2019-05-30T09:23:21.723Z,33.20
2019-05-30T09:25:54.565Z,32.70
2019-05-30T09:28:27.362Z,32.80
2019-05-30T09:30:59.268Z,32.40
2019-05-30T09:33:31.257Z,31.50
2019-05-30T09:36:12.811Z,31.80
2019-05-30T09:38:37.169Z,31.20
2019-05-30T09:41:09.518Z,31.20
2019-05-30T09:43:42.825Z,30.60
2019-05-30T09:46:15.238Z,30.90
2019-05-30T09:48:48.619Z,31.70
2019-05-30T09:51:20.672Z,32.60
2019-05-30T09:53:52.983Z,33.90
2019-05-30T09:56:25.083Z,35.70
2019-05-30T09:58:57.072Z,37.40
2019-05-30T10:01:29.230Z,37.90
2019-05-30T10:04:01.424Z,38.60
2019-05-30T10:06:33.519Z,39.20
2019-05-30T10:09:07.994Z,39.20
2019-05-30T10:11:39.828Z,39.90
2019-05-30T10:14:11.794Z,40.10
2019-05-30T10:16:47.312Z,40.50
2019-05-30T10:19:17.657Z,40.80
2019-05-30T10:21:51.574Z,41.40
2019-05-30T10:24:23.212Z,41.70
2019-05-30T10:26:55.291Z,41.60
2019-05-30T10:29:27.198Z,41.80
2019-05-30T10:31:59.097Z,42.00
2019-05-30T10:34:30.716Z,42.50
2019-05-30T10:37:02.996Z,42.80
2019-05-30T10:39:33.323Z,42.50
2019-05-30T10:42:05.571Z,42.50
2019-05-30T10:44:37.047Z,42.70
2019-05-30T10:47:09.007Z,42.90
2019-05-30T10:49:41.346Z,42.80
2019-05-30T10:52:13.635Z,42.20
2019-05-30T10:54:46.701Z,42.20
2019-05-30T10:57:20.303Z,42.90
2019-05-30T10:59:52.597Z,43.30
2019-05-30T11:02:24.816Z,43.60
2019-05-30T11:04:57.583Z,43.80
2019-05-30T11:07:41.626Z,43.30
2019-05-30T11:10:16.718Z,43.40
2019-05-30T11:12:51.203Z,43.30
2019-05-30T11:15:23.673Z,42.90
2019-05-30T11:17:57.688Z,42.50
2019-05-30T11:20:30.136Z,41.90
2019-05-30T11:23:03.150Z,40.90
2019-05-30T11:25:35.236Z,40.70
2019-05-30T11:28:08.887Z,41.30
2019-05-30T11:30:40.917Z,41.60
2019-05-30T11:33:13.073Z,42.40
2019-05-30T11:35:45.102Z,43.00
2019-05-30T11:38:17.022Z,43.00
2019-05-30T11:40:49.360Z,42.70
2019-05-30T11:43:22.044Z,42.60
2019-05-30T11:45:55.973Z,42.30
2019-05-30T11:48:28.107Z,42.40
2019-05-30T11:51:00.473Z,42.20
2019-05-30T11:53:33.152Z,42.00
2019-05-30T11:56:05.819Z,42.30
2019-05-30T11:58:37.870Z,42.60
2019-05-30T12:01:10.308Z,42.50
2019-05-30T12:03:42.039Z,40.60
2019-05-30T12:06:14.232Z,40.60
2019-05-30T12:08:46.268Z,40.20
2019-05-30T12:11:19.256Z,40.10
2019-05-30T12:13:53.403Z,40.20
2019-05-30T12:16:26.728Z,40.20
2019-05-30T12:18:59.716Z,40.30
2019-05-30T12:21:34.510Z,39.70
2019-05-30T12:24:07.338Z,39.50
2019-05-30T12:26:39.397Z,39.20
2019-05-30T12:29:11.845Z,39.40
2019-05-30T12:31:44.485Z,39.50
2019-05-30T12:34:16.109Z,39.50
2019-05-30T12:36:48.129Z,39.60
2019-05-30T12:39:20.660Z,39.30
2019-05-30T12:41:52.868Z,39.10
2019-05-30T12:44:26.843Z,39.10
2019-05-30T12:46:59.184Z,39.20
2019-05-30T12:49:31.283Z,39.40
2019-05-30T12:52:03.920Z,39.20
2019-05-30T12:54:37.405Z,39.30
2019-05-30T12:57:10.883Z,39.00
2019-05-30T12:59:43.513Z,38.70
2019-05-30T13:02:16.794Z,38.10
2019-05-30T13:04:48.608Z,38.10
2019-05-30T13:07:21.266Z,38.90
2019-05-30T13:09:53.512Z,38.50
2019-05-30T13:12:26.275Z,38.50
2019-05-30T13:14:59.530Z,38.50
2019-05-30T13:17:31.877Z,38.80
2019-05-30T13:20:04.015Z,39.10
2019-05-30T13:22:36.833Z,39.10
2019-05-30T13:25:10.993Z,39.00
2019-05-30T13:27:43.241Z,39.20
2019-05-30T13:30:15.502Z,39.20
2019-05-30T13:32:47.343Z,38.90
2019-05-30T13:35:19.513Z,38.70
2019-05-30T13:37:51.782Z,38.40
2019-05-30T13:40:25.684Z,38.20
2019-05-30T13:42:59.712Z,38.10
2019-05-30T13:45:32.109Z,38.20
2019-05-30T13:48:04.456Z,38.60
2019-05-30T13:50:36.341Z,38.60
2019-05-30T13:53:09.225Z,38.90
2019-05-30T13:55:41.638Z,39.20
2019-05-30T13:58:13.501Z,39.70
2019-05-30T14:00:46.416Z,39.70
2019-05-30T14:03:18.602Z,39.30
2019-05-30T14:05:51.181Z,39.10
2019-05-30T14:08:23.754Z,39.20
2019-05-30T14:10:56.162Z,39.00
2019-05-30T14:13:29.011Z,38.30
2019-05-30T14:16:02.728Z,38.00
2019-05-30T14:18:35.941Z,38.30
2019-05-30T14:21:09.407Z,38.50
2019-05-30T14:23:42.721Z,38.60
2019-05-30T14:26:15.794Z,38.70
2019-05-30T14:28:49.154Z,38.80
2019-05-30T14:31:21.327Z,38.60
2019-05-30T14:33:53.210Z,38.60
2019-05-30T14:36:25.708Z,38.70
2019-05-30T14:38:58.937Z,38.50
2019-05-30T14:41:31.089Z,38.20
2019-05-30T14:44:03.103Z,38.00
2019-05-30T14:46:35.362Z,37.20
2019-05-30T14:49:08.625Z,37.30
2019-05-30T14:51:41.153Z,37.60
2019-05-30T14:54:13.302Z,37.40
2019-05-30T14:56:45.801Z,37.60
2019-05-30T14:59:18.050Z,37.50
2019-05-30T15:01:50.341Z,37.70
2019-05-30T15:04:22.181Z,37.90
2019-05-30T15:06:54.213Z,37.60
2019-05-30T15:09:26.609Z,37.50
2019-05-30T15:11:58.521Z,37.70
2019-05-30T15:14:30.548Z,38.10
2019-05-30T15:17:02.454Z,37.90
2019-05-30T15:19:34.662Z,38.10
2019-05-30T15:22:07.470Z,38.20
2019-05-30T15:24:39.848Z,38.20
2019-05-30T15:27:12.149Z,37.80
2019-05-30T15:29:44.189Z,38.00
2019-05-30T15:32:16.636Z,38.00
2019-05-30T15:34:48.845Z,38.20
2019-05-30T15:37:23.868Z,38.40
2019-05-30T15:39:56.000Z,38.50
2019-05-30T15:42:28.224Z,38.40
2019-05-30T15:45:00.523Z,38.20
2019-05-30T15:47:32.620Z,38.50
2019-05-30T15:50:05.024Z,38.70
2019-05-30T15:52:36.843Z,38.80
2019-05-30T15:55:09.454Z,38.90
2019-05-30T15:57:41.954Z,38.90
2019-05-30T16:00:16.376Z,39.10
2019-05-30T16:02:48.582Z,39.10
2019-05-30T16:05:21.009Z,39.10
2019-05-30T16:07:53.342Z,38.90
2019-05-30T16:10:25.326Z,39.50
2019-05-30T16:12:56.980Z,39.10
2019-05-30T16:15:29.062Z,39.80
2019-05-30T16:18:01.652Z,40.40
2019-05-30T16:20:33.590Z,40.90
2019-05-30T16:23:05.727Z,40.90
2019-05-30T16:25:37.552Z,41.00
2019-05-30T16:28:09.660Z,41.00
2019-05-30T16:30:42.804Z,40.90
2019-05-30T16:33:15.893Z,40.90
2019-05-30T16:35:48.345Z,40.80
2019-05-30T16:38:20.463Z,40.90
2019-05-30T16:40:52.838Z,41.20
2019-05-30T16:43:25.186Z,41.50
2019-05-30T16:45:57.442Z,42.00
2019-05-30T16:48:29.606Z,42.30
2019-05-30T16:51:02.033Z,42.90
2019-05-30T16:53:34.009Z,42.90
2019-05-30T16:56:06.285Z,43.00
2019-05-30T16:58:38.371Z,43.30
2019-05-30T17:01:10.604Z,43.30
2019-05-30T17:03:42.460Z,43.50
2019-05-30T17:06:14.273Z,43.40
2019-05-30T17:08:46.230Z,43.40
2019-05-30T17:11:19.275Z,43.60
2019-05-30T17:13:51.664Z,43.90
2019-05-30T17:16:24.233Z,43.80
2019-05-30T17:18:56.293Z,43.90
2019-05-30T17:21:28.400Z,44.00
2019-05-30T17:24:00.514Z,43.90
2019-05-30T17:26:32.577Z,44.00
2019-05-30T17:29:04.686Z,44.00
2019-05-30T17:31:36.466Z,44.10
2019-05-30T17:34:08.882Z,44.10
2019-05-30T17:36:40.739Z,43.90
2019-05-30T17:39:12.757Z,43.60
2019-05-30T17:41:45.022Z,43.50
2019-05-30T17:44:17.171Z,43.60
2019-05-30T17:46:49.178Z,43.80
2019-05-30T17:49:21.739Z,43.90
2019-05-30T17:51:54.128Z,43.90
2019-05-30T17:54:26.573Z,43.80
2019-05-30T17:56:58.634Z,44.00
2019-05-30T17:59:30.734Z,44.00
2019-05-30T18:02:04.128Z,44.10
2019-05-30T18:04:36.264Z,44.00
2019-05-30T18:07:08.910Z,44.00
2019-05-30T18:09:40.857Z,44.10
2019-05-30T18:12:12.799Z,44.30
2019-05-30T18:14:44.816Z,44.50
2019-05-30T18:17:16.657Z,44.60
2019-05-30T18:19:48.538Z,45.30
2019-05-30T18:22:21.442Z,45.00
2019-05-30T18:24:53.796Z,45.20
2019-05-30T18:27:25.939Z,45.40
2019-05-30T18:29:57.936Z,46.00
2019-05-30T18:32:30.283Z,46.40
2019-05-30T18:35:02.662Z,46.80
2019-05-30T18:37:34.923Z,46.90
2019-05-30T18:40:07.437Z,47.00
2019-05-30T18:42:39.698Z,47.00
2019-05-30T18:45:11.800Z,47.20
2019-05-30T18:47:43.720Z,47.40
2019-05-30T18:50:15.478Z,47.60
2019-05-30T18:52:48.018Z,47.70
2019-05-30T18:55:20.091Z,47.90
2019-05-30T18:57:52.167Z,48.20
2019-05-30T19:00:24.915Z,48.50
2019-05-30T19:02:56.650Z,48.70
2019-05-30T19:05:28.642Z,48.70
2019-05-30T19:08:00.863Z,48.70
2019-05-30T19:10:34.204Z,49.10
2019-05-30T19:13:06.412Z,49.50
2019-05-30T19:15:38.119Z,49.50
2019-05-30T19:18:10.114Z,49.50
2019-05-30T19:20:42.150Z,49.50
2019-05-30T19:23:14.133Z,49.50
2019-05-30T19:25:46.567Z,49.50
2019-05-30T19:28:18.424Z,49.60
2019-05-30T19:30:50.110Z,49.60
2019-05-30T19:33:22.180Z,49.60
2019-05-30T19:35:54.564Z,49.80
2019-05-30T19:38:27.208Z,49.80
2019-05-30T19:40:59.108Z,50.00
2019-05-30T19:43:31.747Z,50.00
2019-05-30T19:46:03.929Z,50.30
2019-05-30T19:48:36.519Z,50.20
2019-05-30T19:51:08.942Z,50.00
2019-05-30T19:53:41.335Z,49.90
2019-05-30T19:56:13.282Z,49.80
2019-05-30T19:58:45.203Z,50.00
2019-05-30T20:01:17.212Z,50.20
2019-05-30T20:03:49.176Z,50.00
2019-05-30T20:06:24.044Z,49.80
2019-05-30T20:08:55.688Z,49.60
2019-05-30T20:11:28.292Z,49.70
2019-05-30T20:14:00.178Z,49.40
2019-05-30T20:16:32.124Z,49.20
2019-05-30T20:19:04.306Z,49.30
2019-05-30T20:21:36.184Z,49.20
2019-05-30T20:24:08.266Z,49.00
2019-05-30T20:26:40.670Z,49.00
2019-05-30T20:29:12.548Z,49.00
2019-05-30T20:31:45.741Z,49.10
2019-05-30T20:34:17.791Z,49.00
2019-05-30T20:36:49.646Z,48.80
2019-05-30T20:39:21.346Z,48.60
2019-05-30T20:41:53.994Z,48.50
2019-05-30T20:44:26.108Z,48.40
2019-05-30T20:46:58.162Z,48.30
2019-05-30T20:49:29.858Z,48.90
2019-05-30T20:52:02.209Z,48.50
2019-05-30T20:54:35.159Z,48.70
2019-05-30T20:57:07.226Z,49.00
2019-05-30T20:59:39.016Z,49.10
2019-05-30T21:02:11.028Z,49.40
2019-05-30T21:04:43.054Z,49.50
2019-05-30T21:07:15.149Z,49.80
2019-05-30T21:09:47.141Z,50.00
2019-05-30T21:12:36.395Z,50.30
2019-05-30T21:14:54.813Z,50.30
2019-05-30T21:17:27.869Z,50.40
2019-05-30T21:19:59.458Z,50.60
2019-05-30T21:22:31.444Z,50.70
2019-05-30T21:25:03.401Z,50.90
2019-05-30T21:27:35.177Z,51.20
2019-05-30T21:30:07.635Z,51.40
2019-05-30T21:32:40.100Z,51.60
2019-05-30T21:35:14.407Z,51.60
2019-05-30T21:37:47.799Z,51.70
2019-05-30T21:40:20.302Z,51.90
2019-05-30T21:43:04.827Z,51.90
2019-05-30T21:45:27.264Z,52.00
2019-05-30T21:47:59.242Z,52.10
2019-05-30T21:50:31.673Z,52.20
2019-05-30T21:53:04.227Z,52.60
2019-05-30T21:55:36.282Z,52.50
2019-05-30T21:58:08.275Z,52.50
2019-05-30T22:01:34.334Z,52.60
2019-05-30T22:04:07.450Z,52.70
2019-05-30T22:06:40.719Z,52.50
2019-05-30T22:09:13.068Z,52.50
2019-05-30T22:11:45.580Z,52.40
2019-05-30T22:14:17.674Z,52.50
2019-05-30T22:16:50.246Z,52.60
2019-05-30T22:19:22.400Z,52.50
2019-05-30T22:21:54.248Z,52.80
2019-05-30T22:24:25.933Z,52.90
2019-05-30T22:26:57.830Z,52.90
2019-05-30T22:29:29.777Z,52.90
2019-05-30T22:32:01.606Z,52.80
2019-05-30T22:34:33.298Z,52.60
2019-05-30T22:37:05.264Z,52.60
2019-05-30T22:39:37.030Z,52.50
2019-05-30T22:42:08.834Z,52.30
2019-05-30T22:44:40.635Z,52.40
2019-05-30T22:47:12.617Z,52.50
2019-05-30T22:49:44.692Z,52.50
2019-05-30T22:52:16.910Z,52.60
2019-05-30T22:54:49.055Z,52.60
2019-05-30T22:57:21.362Z,52.40
2019-05-30T22:59:53.643Z,52.30
2019-05-30T23:02:25.447Z,52.20
2019-05-30T23:04:57.416Z,52.10
2019-05-30T23:07:29.234Z,52.00
2019-05-30T23:10:01.277Z,51.60
2019-05-30T23:12:33.012Z,51.30
2019-05-30T23:15:05.064Z,51.00
2019-05-30T23:17:36.919Z,50.70
2019-05-30T23:20:09.300Z,50.70
2019-05-30T23:22:41.161Z,50.60
2019-05-30T23:25:13.158Z,50.50
2019-05-30T23:27:45.062Z,50.40
2019-05-30T23:30:17.106Z,50.50
2019-05-30T23:32:50.313Z,50.60
2019-05-30T23:35:22.146Z,50.80
2019-05-30T23:37:54.705Z,51.00
2019-05-30T23:40:26.594Z,51.10
2019-05-30T23:42:59.251Z,51.40
2019-05-30T23:45:31.226Z,51.50
2019-05-30T23:48:02.942Z,51.80
2019-05-30T23:50:34.962Z,52.10
2019-05-30T23:53:06.924Z,52.30
2019-05-30T23:55:39.178Z,52.70
2019-05-30T23:58:10.786Z,53.10
